Sagittarian — WCY5210 — position and weather

sailwx.info

Track history (hours):
 
Tides and Currents Weather Stations Pressure Air Temp Water Temp Dewpoint Dewpoint Depression Visibility Wind Speed Wind Dir Waves Ship Positions

Sagittarian

Owner: TAURUS MARINE, SAN FRANCISCO, CA. More information available from US FCC via Universal Licensing System and Coast Guard Vessel Documentation Center.

Last reported at 2014-Oct-21 10:33 UTC. Time now 2014-Oct-23 05:54 UTC.
Position N 37°46' W 122°23'.

; draft 3 m.

Type: Towing. MMSI: 366969510.

Date/timePositionNaut miles runAvg speedWind from/ knotsBaromVisibWave heightAir tempDewpointWater temp
2014-Oct-21 10:33N 37°46' W 122°23'0 0.2
2014-Oct-21 09:33N 37°47' W 122°23'5 5.3
2014-Oct-21 08:33N 37°49' W 122°29'2 1.6
2014-Oct-21 07:33N 37°49' W 122°31'6 5.9
2014-Oct-21 06:33N 37°53' W 122°25'2 2.2
2014-Oct-21 05:33N 37°55' W 122°25'1 0.6
2014-Oct-21 04:33N 37°55' W 122°25'8 8.2
2014-Oct-21 03:33N 37°47' W 122°23'0 0.0
2014-Oct-20 15:33N 37°47' W 122°23'9 8.7
2014-Oct-20 14:33N 37°55' W 122°25'3 2.9
2014-Oct-20 13:33N 37°52' W 122°25'6 6.1
2014-Oct-20 12:33N 37°46' W 122°23'0 0.0
2014-Oct-20 11:33N 37°46' W 122°23'0 0.0
2014-Oct-18 15:08N 37°46' W 122°23'0 0.0
2014-Oct-18 14:33N 37°46' W 122°23'0 0.0
2014-Oct-17 20:33N 37°47' W 122°23'7 6.8
2014-Oct-17 19:33N 37°49' W 122°31'4 4.2
2014-Oct-17 18:33N 37°50' W 122°26'5 5.2
2014-Oct-17 17:33N 37°55' W 122°25'0 0.2
2014-Oct-17 16:33N 37°55' W 122°25'0 0.0
2014-Oct-17 15:33N 37°55' W 122°25'0 0.0
2014-Oct-17 14:33N 37°55' W 122°25'0 0.3
2014-Oct-17 13:33N 37°55' W 122°25'9 8.7
2014-Oct-17 12:33N 37°46' W 122°23'0 0.0
2014-Oct-15 08:34N 37°46' W 122°23'0 0.5
2014-Oct-15 07:33N 37°47' W 122°23'8 8.0
2014-Oct-15 06:33N 37°54' W 122°26'1 1.3
2014-Oct-15 05:33N 37°55' W 122°25'3 2.9
2014-Oct-15 04:33N 37°53' W 122°25'6 1.5
2014-Oct-15 00:24N 37°46' W 122°23'0 0.1
2014-Oct-14 23:34N 37°46' W 122°23'0 0.0
2014-Oct-14 22:33N 37°46' W 122°23'0 0.0
2014-Oct-14 21:33N 37°46' W 122°23'0 0.0
2014-Oct-14 20:34N 37°46' W 122°23'0 0.0
2014-Oct-14 00:33N 37°46' W 122°23'8 8.3
2014-Oct-13 23:33N 37°55' W 122°25'1 0.9
2014-Oct-13 22:33N 37°55' W 122°26'0 0.4
2014-Oct-13 21:33N 37°54' W 122°26'4 3.9
2014-Oct-13 20:33N 37°51' W 122°27'4 3.6
2014-Oct-13 19:33N 37°48' W 122°30'4 3.8
2014-Oct-13 18:34N 37°49' W 122°26'3 0.2
2014-Oct-13 01:08N 37°46' W 122°23'2 3.9
2014-Oct-13 00:34N 37°49' W 122°24'1 1.0
2014-Oct-12 23:33N 37°49' W 122°25'1 0.9
2014-Oct-12 22:33N 37°49' W 122°24'0 0.1
2014-Oct-12 21:33N 37°49' W 122°24'0 0.1
2014-Oct-12 20:33N 37°49' W 122°24'2 1.5
2014-Oct-12 19:29N 37°48' W 122°23'2 1.9
2014-Oct-12 18:12N 37°50' W 122°23'2 3.2
2014-Oct-12 17:29N 37°49' W 122°25'0 0.1
2014-Oct-12 16:33N 37°49' W 122°25'3 0.2
2014-Oct-12 00:33N 37°46' W 122°23'3 2.7
2014-Oct-11 23:33N 37°49' W 122°25'1 0.9
2014-Oct-11 22:33N 37°49' W 122°24'0 0.3
2014-Oct-11 21:33N 37°49' W 122°24'0 0.3
2014-Oct-11 20:33N 37°49' W 122°24'2 2.3
2014-Oct-11 19:33N 37°47' W 122°23'2 1.5
2014-Oct-11 18:33N 37°46' W 122°21'7 6.8
2014-Oct-11 17:33N 37°50' W 122°27'3 2.5
2014-Oct-11 16:33N 37°49' W 122°25'0 0.0
2014-Oct-11 15:33N 37°49' W 122°25'  
Track history (hours):
 
Tides and Currents Weather Stations Pressure Air Temp Water Temp Dewpoint Dewpoint Depression Visibility Wind Speed Wind Dir Waves Ship Positions

Sagittarian

Owner: TAURUS MARINE, SAN FRANCISCO, CA. More information available from US FCC via Universal Licensing System and Coast Guard Vessel Documentation Center.

Last reported at 2014-Oct-21 10:33 UTC. Time now 2014-Oct-23 05:54 UTC.
Position N 37°46' W 122°23'.

; draft 3 m.

Type: Towing. MMSI: 366969510.

Date/timePositionNaut miles runAvg speedWind from/ knotsBaromVisibWave heightAir tempDewpointWater temp
2014-Oct-21 10:33N 37°46' W 122°23'0 0.2
2014-Oct-21 09:33N 37°47' W 122°23'5 5.3
2014-Oct-21 08:33N 37°49' W 122°29'2 1.6
2014-Oct-21 07:33N 37°49' W 122°31'6 5.9
2014-Oct-21 06:33N 37°53' W 122°25'2 2.2
2014-Oct-21 05:33N 37°55' W 122°25'1 0.6
2014-Oct-21 04:33N 37°55' W 122°25'8 8.2
2014-Oct-21 03:33N 37°47' W 122°23'0 0.0
2014-Oct-20 15:33N 37°47' W 122°23'9 8.7
2014-Oct-20 14:33N 37°55' W 122°25'3 2.9
2014-Oct-20 13:33N 37°52' W 122°25'6 6.1
2014-Oct-20 12:33N 37°46' W 122°23'0 0.0
2014-Oct-20 11:33N 37°46' W 122°23'0 0.0
2014-Oct-18 15:08N 37°46' W 122°23'0 0.0
2014-Oct-18 14:33N 37°46' W 122°23'0 0.0
2014-Oct-17 20:33N 37°47' W 122°23'7 6.8
2014-Oct-17 19:33N 37°49' W 122°31'4 4.2
2014-Oct-17 18:33N 37°50' W 122°26'5 5.2
2014-Oct-17 17:33N 37°55' W 122°25'0 0.2
2014-Oct-17 16:33N 37°55' W 122°25'0 0.0
2014-Oct-17 15:33N 37°55' W 122°25'0 0.0
2014-Oct-17 14:33N 37°55' W 122°25'0 0.3
2014-Oct-17 13:33N 37°55' W 122°25'9 8.7
2014-Oct-17 12:33N 37°46' W 122°23'0 0.0
2014-Oct-15 08:34N 37°46' W 122°23'0 0.5
2014-Oct-15 07:33N 37°47' W 122°23'8 8.0
2014-Oct-15 06:33N 37°54' W 122°26'1 1.3
2014-Oct-15 05:33N 37°55' W 122°25'3 2.9
2014-Oct-15 04:33N 37°53' W 122°25'6 1.5
2014-Oct-15 00:24N 37°46' W 122°23'0 0.1
2014-Oct-14 23:34N 37°46' W 122°23'0 0.0
2014-Oct-14 22:33N 37°46' W 122°23'0 0.0
2014-Oct-14 21:33N 37°46' W 122°23'0 0.0
2014-Oct-14 20:34N 37°46' W 122°23'0 0.0
2014-Oct-14 00:33N 37°46' W 122°23'8 8.3
2014-Oct-13 23:33N 37°55' W 122°25'1 0.9
2014-Oct-13 22:33N 37°55' W 122°26'0 0.4
2014-Oct-13 21:33N 37°54' W 122°26'4 3.9
2014-Oct-13 20:33N 37°51' W 122°27'4 3.6
2014-Oct-13 19:33N 37°48' W 122°30'4 3.8
2014-Oct-13 18:34N 37°49' W 122°26'3 0.2
2014-Oct-13 01:08N 37°46' W 122°23'2 3.9
2014-Oct-13 00:34N 37°49' W 122°24'1 1.0
2014-Oct-12 23:33N 37°49' W 122°25'1 0.9
2014-Oct-12 22:33N 37°49' W 122°24'0 0.1
2014-Oct-12 21:33N 37°49' W 122°24'0 0.1
2014-Oct-12 20:33N 37°49' W 122°24'2 1.5
2014-Oct-12 19:29N 37°48' W 122°23'2 1.9
2014-Oct-12 18:12N 37°50' W 122°23'2 3.2
2014-Oct-12 17:29N 37°49' W 122°25'0 0.1
2014-Oct-12 16:33N 37°49' W 122°25'3 0.2
2014-Oct-12 00:33N 37°46' W 122°23'3 2.7
2014-Oct-11 23:33N 37°49' W 122°25'1 0.9
2014-Oct-11 22:33N 37°49' W 122°24'0 0.3
2014-Oct-11 21:33N 37°49' W 122°24'0 0.3
2014-Oct-11 20:33N 37°49' W 122°24'2 2.3
2014-Oct-11 19:33N 37°47' W 122°23'2 1.5
2014-Oct-11 18:33N 37°46' W 122°21'7 6.8
2014-Oct-11 17:33N 37°50' W 122°27'3 2.5
2014-Oct-11 16:33N 37°49' W 122°25'0 0.0
2014-Oct-11 15:33N 37°49' W 122°25'  

Dump ship's entire track history